Explorer Of The Seas — C6SE4 — position and weather

sailwx.info

Track history (hours):
 
Tides and Currents Weather Stations Pressure Air Temp Water Temp Dewpoint Dewpoint Depression Visibility Wind Speed Wind Dir Waves Ship Positions

Explorer Of The Seas

Operator: Royal Caribbean Cruises Ltd

Last reported at 2020-Apr-02 12:00 UTC. Time now 2020-Apr-02 22:44 UTC.
Position N 24°54' W 079°36'.

Length 311 m; draft 9.3 m.

Type: Passenger vessel. MMSI: 311316000.

Wind from 040 at 14 knots

Barometer 1014.2 mb
Air temperature 25.0 ° C
Visibility: greater than 10.8 NM
Dewpoint 12.0 ° C
Water temperature 27.0 ° C

Date/timePositionNaut miles runAvg speedWind from/ knotsBaromVisibWave heightAir tempDewpointWater temp
2020-Apr-02 12:00N 24°54' W 079°36'52 1.4 040 / 141014.210.8 25.012.027.0
2020-Mar-31 22:00N 25°46' W 079°37'4 4.3
2020-Mar-31 21:00N 25°42' W 079°36'2 4.1
2020-Mar-31 20:30N 25°40' W 079°35'1 0.0
2020-Mar-30 17:05N 25°40' W 079°36'32 6.2
2020-Mar-30 11:55N 26°12' W 079°31'5 3.6
2020-Mar-30 10:30N 26°17' W 079°31'5 2.5
2020-Mar-30 08:29N 26°12' W 079°29'1 2.1
2020-Mar-30 07:52N 26°11' W 079°28'3 1.7
2020-Mar-30 05:50N 26°08' W 079°26'8 0.2
2020-Mar-28 08:22N 26°11' W 079°35'3 1.5
2020-Mar-28 06:30N 26°09' W 079°36'1 2.3
2020-Mar-28 06:00N 26°08' W 079°35'7 2.2
2020-Mar-28 03:00N 26°02' W 079°32'1 2.4
2020-Mar-28 02:29N 26°01' W 079°31'1 2.1
2020-Mar-28 02:01N 25°60' W 079°30'1 1.2
2020-Mar-28 00:50N 25°58' W 079°31'20 8.4
2020-Mar-27 22:30N 25°50' W 079°50'6 6.5
2020-Mar-27 21:30N 25°49' W 079°58'11 2.4
2020-Mar-27 16:58N 25°46' W 080°09'0 0.0
2020-Mar-27 16:28N 25°46' W 080°09'0 0.0
2020-Mar-27 15:58N 25°46' W 080°09'0 0.0
2020-Mar-27 14:58N 25°46' W 080°09'0 0.0
2020-Mar-27 13:28N 25°46' W 080°09'0 0.0
2020-Mar-27 12:30N 25°46' W 080°09'2 3.1
2020-Mar-27 12:00N 25°47' W 080°11'12 7.8
2020-Mar-27 10:30N 25°49' W 079°58'5 9.0
2020-Mar-27 10:00N 25°52' W 079°54'19 9.3
2020-Mar-27 08:00N 26°02' W 079°37'  
Track history (hours):
 
Tides and Currents Weather Stations Pressure Air Temp Water Temp Dewpoint Dewpoint Depression Visibility Wind Speed Wind Dir Waves Ship Positions

Explorer Of The Seas

Operator: Royal Caribbean Cruises Ltd

Last reported at 2020-Apr-02 12:00 UTC. Time now 2020-Apr-02 22:44 UTC.
Position N 24°54' W 079°36'.

Length 311 m; draft 9.3 m.

Type: Passenger vessel. MMSI: 311316000.

Wind from 040 at 14 knots

Barometer 1014.2 mb
Air temperature 25.0 ° C
Visibility: greater than 10.8 NM
Dewpoint 12.0 ° C
Water temperature 27.0 ° C

Date/timePositionNaut miles runAvg speedWind from/ knotsBaromVisibWave heightAir tempDewpointWater temp
2020-Apr-02 12:00N 24°54' W 079°36'52 1.4 040 / 141014.210.8 25.012.027.0
2020-Mar-31 22:00N 25°46' W 079°37'4 4.3
2020-Mar-31 21:00N 25°42' W 079°36'2 4.1
2020-Mar-31 20:30N 25°40' W 079°35'1 0.0
2020-Mar-30 17:05N 25°40' W 079°36'32 6.2
2020-Mar-30 11:55N 26°12' W 079°31'5 3.6
2020-Mar-30 10:30N 26°17' W 079°31'5 2.5
2020-Mar-30 08:29N 26°12' W 079°29'1 2.1
2020-Mar-30 07:52N 26°11' W 079°28'3 1.7
2020-Mar-30 05:50N 26°08' W 079°26'8 0.2
2020-Mar-28 08:22N 26°11' W 079°35'3 1.5
2020-Mar-28 06:30N 26°09' W 079°36'1 2.3
2020-Mar-28 06:00N 26°08' W 079°35'7 2.2
2020-Mar-28 03:00N 26°02' W 079°32'1 2.4
2020-Mar-28 02:29N 26°01' W 079°31'1 2.1
2020-Mar-28 02:01N 25°60' W 079°30'1 1.2
2020-Mar-28 00:50N 25°58' W 079°31'20 8.4
2020-Mar-27 22:30N 25°50' W 079°50'6 6.5
2020-Mar-27 21:30N 25°49' W 079°58'11 2.4
2020-Mar-27 16:58N 25°46' W 080°09'0 0.0
2020-Mar-27 16:28N 25°46' W 080°09'0 0.0
2020-Mar-27 15:58N 25°46' W 080°09'0 0.0
2020-Mar-27 14:58N 25°46' W 080°09'0 0.0
2020-Mar-27 13:28N 25°46' W 080°09'0 0.0
2020-Mar-27 12:30N 25°46' W 080°09'2 3.1
2020-Mar-27 12:00N 25°47' W 080°11'12 7.8
2020-Mar-27 10:30N 25°49' W 079°58'5 9.0
2020-Mar-27 10:00N 25°52' W 079°54'19 9.3
2020-Mar-27 08:00N 26°02' W 079°37'  

Dump ship's entire track history